EGUV weather

CLOSED RAF Thorney Island
West Thorney, England, United Kingdom

Public forecast

Using degrees Celsius for public forecast. Weather courtesy of forecast.io.

Closest aviation weather report (METAR) to RAF Thorney Island

Closest report is Southampton Airport, 18.4 nm (34.1 km) WNW. Retrieved 2020/07/07 12:50 UTC (15 minutes ago):

EGHI 071250Z 20013KT 160V250 9999 SCT045 18/08 Q1021

Closest aviation forecast (TAF) to RAF Thorney Island

Forecast is more than 12 hours old.

Closest forecast is Southampton Airport, 18.4 nm (34.1 km) WNW. Retrieved 2020/02/21 21:54 UTC (5 months ago):

TAF EGHI 210345Z 2021/2123 CNL